sensor_id;sensor_type;location;lat;lon;timestamp;pressure;altitude;pressure_sealevel;temperature;humidity
29907;BME280;16776;50.958;10.994;2023-02-28T00:00:08;99751.19;;;-0.64;91.23
29907;BME280;16776;50.958;10.994;2023-02-28T00:02:36;99746.94;;;-0.65;91.53
29907;BME280;16776;50.958;10.994;2023-02-28T00:05:04;99749.47;;;-0.65;91.50
29907;BME280;16776;50.958;10.994;2023-02-28T00:07:32;99740.19;;;-0.66;91.23
29907;BME280;16776;50.958;10.994;2023-02-28T00:09:59;99743.59;;;-0.65;91.61
29907;BME280;16776;50.958;10.994;2023-02-28T00:12:27;99734.28;;;-0.65;91.50
29907;BME280;16776;50.958;10.994;2023-02-28T00:14:54;99742.72;;;-0.66;91.28
29907;BME280;16776;50.958;10.994;2023-02-28T00:17:20;99731.53;;;-0.72;91.64
29907;BME280;16776;50.958;10.994;2023-02-28T00:19:47;99732.59;;;-0.66;91.39
29907;BME280;16776;50.958;10.994;2023-02-28T00:22:14;99732.53;;;-0.67;91.14
29907;BME280;16776;50.958;10.994;2023-02-28T00:24:41;99733.41;;;-0.67;90.99
29907;BME280;16776;50.958;10.994;2023-02-28T00:27:08;99732.59;;;-0.66;91.13
29907;BME280;16776;50.958;10.994;2023-02-28T00:29:36;99739.34;;;-0.65;91.21
29907;BME280;16776;50.958;10.994;2023-02-28T00:32:04;99731.72;;;-0.66;91.73
29907;BME280;16776;50.958;10.994;2023-02-28T00:34:31;99703.19;;;-0.86;91.60
29907;BME280;16776;50.958;10.994;2023-02-28T00:37:03;99730.88;;;-0.67;91.33
29907;BME280;16776;50.958;10.994;2023-02-28T00:39:29;99728.34;;;-0.67;91.31
29907;BME280;16776;50.958;10.994;2023-02-28T00:41:56;99729.16;;;-0.68;91.30
29907;BME280;16776;50.958;10.994;2023-02-28T00:44:22;99719.81;;;-0.69;91.50
29907;BME280;16776;50.958;10.994;2023-02-28T00:46:50;99728.34;;;-0.67;91.33
29907;BME280;16776;50.958;10.994;2023-02-28T00:49:19;99727.41;;;-0.69;91.21
29907;BME280;16776;50.958;10.994;2023-02-28T00:51:46;99728.22;;;-0.70;91.24
29907;BME280;16776;50.958;10.994;2023-02-28T00:54:13;99725.69;;;-0.70;91.23
29907;BME280;16776;50.958;10.994;2023-02-28T00:56:39;99735.81;;;-0.70;91.09
29907;BME280;16776;50.958;10.994;2023-02-28T00:59:06;99724.78;;;-0.72;91.45
29907;BME280;16776;50.958;10.994;2023-02-28T01:01:32;99724.78;;;-0.72;91.55
29907;BME280;16776;50.958;10.994;2023-02-28T01:04:00;99720.34;;;-0.77;91.33
29907;BME280;16776;50.958;10.994;2023-02-28T01:06:27;99723.88;;;-0.74;91.64
29907;BME280;16776;50.958;10.994;2023-02-28T01:08:53;99725.59;;;-0.73;91.41
29907;BME280;16776;50.958;10.994;2023-02-28T01:11:20;99727.19;;;-0.75;90.91
29907;BME280;16776;50.958;10.994;2023-02-28T01:13:47;99734.72;;;-0.76;91.15
29907;BME280;16776;50.958;10.994;2023-02-28T01:16:14;99733.00;;;-0.77;91.42
29907;BME280;16776;50.958;10.994;2023-02-28T01:18:40;99726.28;;;-0.77;91.21
29907;BME280;16776;50.958;10.994;2023-02-28T01:21:10;99734.78;;;-0.75;91.20
29907;BME280;16776;50.958;10.994;2023-02-28T01:23:39;99728.00;;;-0.76;91.84
29907;BME280;16776;50.958;10.994;2023-02-28T01:26:06;99731.38;;;-0.75;91.68
29907;BME280;16776;50.958;10.994;2023-02-28T01:28:33;99710.06;;;-0.82;91.29
29907;BME280;16776;50.958;10.994;2023-02-28T01:31:00;99727.25;;;-0.73;91.70
29907;BME280;16776;50.958;10.994;2023-02-28T01:33:27;99725.59;;;-0.73;91.84
29907;BME280;16776;50.958;10.994;2023-02-28T01:35:57;99723.16;;;-0.70;91.65
29907;BME280;16776;50.958;10.994;2023-02-28T01:38:26;99723.97;;;-0.71;91.50
29907;BME280;16776;50.958;10.994;2023-02-28T01:40:53;99718.91;;;-0.71;91.45
29907;BME280;16776;50.958;10.994;2023-02-28T01:43:23;99722.34;;;-0.69;91.32
29907;BME280;16776;50.958;10.994;2023-02-28T01:45:50;99717.22;;;-0.70;91.55
29907;BME280;16776;50.958;10.994;2023-02-28T01:48:17;99720.63;;;-0.70;91.80
29907;BME280;16776;50.958;10.994;2023-02-28T01:50:46;99719.81;;;-0.69;92.22
29907;BME280;16776;50.958;10.994;2023-02-28T01:53:16;99722.34;;;-0.69;91.55
29907;BME280;16776;50.958;10.994;2023-02-28T01:55:48;99680.44;;;-0.86;91.94
29907;BME280;16776;50.958;10.994;2023-02-28T01:58:16;99718.09;;;-0.70;92.02
29907;BME280;16776;50.958;10.994;2023-02-28T02:00:43;99715.63;;;-0.68;91.50
29907;BME280;16776;50.958;10.994;2023-02-28T02:03:11;99714.03;;;-0.66;91.84
29907;BME280;16776;50.958;10.994;2023-02-28T02:05:40;99709.84;;;-0.66;91.62
29907;BME280;16776;50.958;10.994;2023-02-28T02:08:09;99708.16;;;-0.65;91.78
29907;BME280;16776;50.958;10.994;2023-02-28T02:10:41;99709.00;;;-0.65;91.62
29907;BME280;16776;50.958;10.994;2023-02-28T02:13:19;99705.66;;;-0.64;91.74
29907;BME280;16776;50.958;10.994;2023-02-28T02:16:00;99705.66;;;-0.64;91.83
29907;BME280;16776;50.958;10.994;2023-02-28T02:18:34;99703.91;;;-0.66;91.72
29907;BME280;16776;50.958;10.994;2023-02-28T02:21:28;99681.81;;;-0.70;91.73
29907;BME280;16776;50.958;10.994;2023-02-28T02:24:27;99703.13;;;-0.64;91.92
29907;BME280;16776;50.958;10.994;2023-02-28T02:27:13;99696.31;;;-0.66;91.57
29907;BME280;16776;50.958;10.994;2023-02-28T02:35:52;99692.78;;;-0.71;91.52
29907;BME280;16776;50.958;10.994;2023-02-28T02:38:31;99694.44;;;-0.72;91.64
29907;BME280;16776;50.958;10.994;2023-02-28T02:41:05;99696.97;;;-0.72;91.67
29907;BME280;16776;50.958;10.994;2023-02-28T02:43:36;99695.13;;;-0.76;91.82
29907;BME280;16776;50.958;10.994;2023-02-28T02:46:09;99692.66;;;-0.74;91.70
29907;BME280;16776;50.958;10.994;2023-02-28T02:48:38;99691.78;;;-0.75;91.72
29907;BME280;16776;50.958;10.994;2023-02-28T02:51:11;99692.72;;;-0.73;91.90
29907;BME280;16776;50.958;10.994;2023-02-28T02:53:45;99701.09;;;-0.74;91.77
29907;BME280;16776;50.958;10.994;2023-02-28T02:56:17;99710.28;;;-0.76;91.78
29907;BME280;16776;50.958;10.994;2023-02-28T02:58:47;99695.25;;;-0.73;91.84
29907;BME280;16776;50.958;10.994;2023-02-28T03:01:19;99698.56;;;-0.74;91.63
29907;BME280;16776;50.958;10.994;2023-02-28T03:03:55;99692.59;;;-0.76;91.85
29907;BME280;16776;50.958;10.994;2023-02-28T03:06:24;99694.31;;;-0.75;91.80
29907;BME280;16776;50.958;10.994;2023-02-28T03:08:50;99695.13;;;-0.76;91.58
29907;BME280;16776;50.958;10.994;2023-02-28T03:11:17;99688.13;;;-0.83;92.08
29907;BME280;16776;50.958;10.994;2023-02-28T03:13:59;99699.50;;;-0.72;91.68
29907;BME280;16776;50.958;10.994;2023-02-28T03:16:36;99693.50;;;-0.74;91.61
29907;BME280;16776;50.958;10.994;2023-02-28T03:19:30;99686.00;;;-0.72;91.83
29907;BME280;16776;50.958;10.994;2023-02-28T03:22:16;99688.47;;;-0.74;91.60
29907;BME280;16776;50.958;10.994;2023-02-28T03:24:50;99697.59;;;-0.77;91.79
29907;BME280;16776;50.958;10.994;2023-02-28T03:27:24;99698.34;;;-0.80;91.63
29907;BME280;16776;50.958;10.994;2023-02-28T03:29:58;99701.81;;;-0.78;91.53
29907;BME280;16776;50.958;10.994;2023-02-28T03:32:29;99689.84;;;-0.82;91.31
29907;BME280;16776;50.958;10.994;2023-02-28T03:34:59;99702.50;;;-0.82;91.82
29907;BME280;16776;50.958;10.994;2023-02-28T03:37:31;99698.22;;;-0.83;91.29
29907;BME280;16776;50.958;10.994;2023-02-28T03:40:04;99697.38;;;-0.83;91.66
29907;BME280;16776;50.958;10.994;2023-02-28T03:42:36;99693.75;;;-0.90;90.84
29907;BME280;16776;50.958;10.994;2023-02-28T03:45:08;99707.44;;;-0.85;91.51
29907;BME280;16776;50.958;10.994;2023-02-28T03:47:40;99700.66;;;-0.86;91.07
29907;BME280;16776;50.958;10.994;2023-02-28T03:50:13;99699.91;;;-0.83;91.13
29907;BME280;16776;50.958;10.994;2023-02-28T03:52:46;99700.66;;;-0.86;91.35
29907;BME280;16776;50.958;10.994;2023-02-28T03:55:14;99701.47;;;-0.87;91.34
29907;BME280;16776;50.958;10.994;2023-02-28T03:57:51;99696.50;;;-0.84;91.24
29907;BME280;16776;50.958;10.994;2023-02-28T04:00:27;99704.09;;;-0.84;91.71
29907;BME280;16776;50.958;10.994;2023-02-28T04:02:56;99696.34;;;-0.88;91.17
29907;BME280;16776;50.958;10.994;2023-02-28T04:05:23;99690.16;;;-0.97;91.09
29907;BME280;16776;50.958;10.994;2023-02-28T04:07:51;99701.47;;;-0.87;91.11
29907;BME280;16776;50.958;10.994;2023-02-28T04:10:18;99698.88;;;-0.88;91.14
29907;BME280;16776;50.958;10.994;2023-02-28T04:12:44;99704.81;;;-0.88;90.88
29907;BME280;16776;50.958;10.994;2023-02-28T04:15:11;99705.59;;;-0.89;91.35
29907;BME280;16776;50.958;10.994;2023-02-28T04:17:37;99703.06;;;-0.89;91.25
29907;BME280;16776;50.958;10.994;2023-02-28T04:20:05;99703.06;;;-0.89;91.23
29907;BME280;16776;50.958;10.994;2023-02-28T04:22:35;99703.88;;;-0.90;91.20
29907;BME280;16776;50.958;10.994;2023-02-28T04:25:03;99701.41;;;-0.88;91.21
29907;BME280;16776;50.958;10.994;2023-02-28T04:27:30;99705.56;;;-0.90;91.05
29907;BME280;16776;50.958;10.994;2023-02-28T04:29:57;99709.75;;;-0.91;91.15
29907;BME280;16776;50.958;10.994;2023-02-28T04:32:23;99710.56;;;-0.92;91.53
29907;BME280;16776;50.958;10.994;2023-02-28T04:34:50;99709.69;;;-0.92;91.32
29907;BME280;16776;50.958;10.994;2023-02-28T04:37:17;99711.38;;;-0.93;91.45
29907;BME280;16776;50.958;10.994;2023-02-28T04:39:43;99710.44;;;-0.95;91.03
29907;BME280;16776;50.958;10.994;2023-02-28T04:42:11;99694.94;;;-1.04;91.52
29907;BME280;16776;50.958;10.994;2023-02-28T04:44:38;99716.28;;;-0.96;91.30
29907;BME280;16776;50.958;10.994;2023-02-28T04:47:05;99714.59;;;-0.97;91.13
29907;BME280;16776;50.958;10.994;2023-02-28T04:49:31;99717.16;;;-0.96;91.23
29907;BME280;16776;50.958;10.994;2023-02-28T04:51:58;99712.09;;;-0.96;91.60
29907;BME280;16776;50.958;10.994;2023-02-28T04:54:25;99718.81;;;-0.96;91.21
29907;BME280;16776;50.958;10.994;2023-02-28T04:56:51;99716.28;;;-0.96;91.02
29907;BME280;16776;50.958;10.994;2023-02-28T04:59:19;99721.34;;;-0.96;91.07
29907;BME280;16776;50.958;10.994;2023-02-28T05:01:46;99690.34;;;-1.14;91.33
29907;BME280;16776;50.958;10.994;2023-02-28T05:04:14;99724.59;;;-1.00;90.86
29907;BME280;16776;50.958;10.994;2023-02-28T05:06:40;99717.72;;;-1.03;90.49
29907;BME280;16776;50.958;10.994;2023-02-28T05:09:07;99720.22;;;-1.04;91.61
29907;BME280;16776;50.958;10.994;2023-02-28T05:11:34;99721.03;;;-1.05;91.27
29907;BME280;16776;50.958;10.994;2023-02-28T05:14:01;99717.56;;;-1.07;91.24
29907;BME280;16776;50.958;10.994;2023-02-28T05:16:30;99724.34;;;-1.06;91.41
29907;BME280;16776;50.958;10.994;2023-02-28T05:18:56;99734.41;;;-1.08;90.68
29907;BME280;16776;50.958;10.994;2023-02-28T05:21:27;99728.56;;;-1.07;91.75
29907;BME280;16776;50.958;10.994;2023-02-28T05:23:55;99724.28;;;-1.08;91.45
29907;BME280;16776;50.958;10.994;2023-02-28T05:26:21;99733.91;;;-0.99;94.62
29907;BME280;16776;50.958;10.994;2023-02-28T05:28:48;99727.25;;;-0.73;96.96
29907;BME280;16776;50.958;10.994;2023-02-28T05:31:15;99735.25;;;-0.37;96.75
29907;BME280;16776;50.958;10.994;2023-02-28T05:33:43;99734.69;;;-0.05;95.62
29907;BME280;16776;50.958;10.994;2023-02-28T05:36:09;99736.22;;;0.15;94.37
29907;BME280;16776;50.958;10.994;2023-02-28T05:38:36;99749.31;;;0.29;93.49
29907;BME280;16776;50.958;10.994;2023-02-28T05:41:05;99742.84;;;0.37;92.83
29907;BME280;16776;50.958;10.994;2023-02-28T05:43:32;99744.47;;;0.35;92.18
29907;BME280;16776;50.958;10.994;2023-02-28T05:45:59;99748.53;;;0.32;91.54
29907;BME280;16776;50.958;10.994;2023-02-28T05:48:27;99745.00;;;0.27;91.32
29907;BME280;16776;50.958;10.994;2023-02-28T05:50:56;99749.06;;;0.21;91.12
29907;BME280;16776;50.958;10.994;2023-02-28T05:53:23;99748.75;;;0.11;91.10
29907;BME280;16776;50.958;10.994;2023-02-28T05:55:53;99750.09;;;0.01;90.85
29907;BME280;16776;50.958;10.994;2023-02-28T05:58:23;99748.16;;;-0.06;90.91
29907;BME280;16776;50.958;10.994;2023-02-28T06:00:52;99746.22;;;-0.13;90.68
29907;BME280;16776;50.958;10.994;2023-02-28T06:03:18;99749.25;;;-0.23;90.53
29907;BME280;16776;50.958;10.994;2023-02-28T06:05:45;99750.72;;;-0.30;90.71
29907;BME280;16776;50.958;10.994;2023-02-28T06:08:16;99758.97;;;-0.35;90.86
29907;BME280;16776;50.958;10.994;2023-02-28T06:10:43;99754.44;;;-0.44;90.83
29907;BME280;16776;50.958;10.994;2023-02-28T06:13:13;99749.09;;;-0.51;90.58
29907;BME280;16776;50.958;10.994;2023-02-28T06:15:39;99753.94;;;-0.58;90.67
29907;BME280;16776;50.958;10.994;2023-02-28T06:18:07;99752.94;;;-0.63;90.81
29907;BME280;16776;50.958;10.994;2023-02-28T06:20:33;99755.38;;;-0.66;91.25
29907;BME280;16776;50.958;10.994;2023-02-28T06:23:01;99757.94;;;-0.64;91.07
29907;BME280;16776;50.958;10.994;2023-02-28T06:25:29;99756.38;;;-0.61;91.17
29907;BME280;16776;50.958;10.994;2023-02-28T06:27:56;99762.38;;;-0.59;91.45
29907;BME280;16776;50.958;10.994;2023-02-28T06:30:23;99765.84;;;-0.55;91.31
29907;BME280;16776;50.958;10.994;2023-02-28T06:32:52;99766.81;;;-0.51;91.37
29907;BME280;16776;50.958;10.994;2023-02-28T06:35:20;99772.94;;;-0.46;91.43
29907;BME280;16776;50.958;10.994;2023-02-28T06:37:47;99778.13;;;-0.42;91.62
29907;BME280;16776;50.958;10.994;2023-02-28T06:40:13;99777.44;;;-0.38;91.79
29907;BME280;16776;50.958;10.994;2023-02-28T06:42:42;99767.38;;;-0.36;91.73
29907;BME280;16776;50.958;10.994;2023-02-28T06:45:10;99784.59;;;-0.26;92.29
29907;BME280;16776;50.958;10.994;2023-02-28T06:47:37;99777.81;;;-0.27;91.79
29907;BME280;16776;50.958;10.994;2023-02-28T06:50:06;99793.44;;;-0.15;92.25
29907;BME280;16776;50.958;10.994;2023-02-28T06:52:32;99788.53;;;-0.10;91.84
29907;BME280;16776;50.958;10.994;2023-02-28T06:55:01;99789.59;;;-0.04;91.91
29907;BME280;16776;50.958;10.994;2023-02-28T06:57:29;99799.06;;;0.02;91.95
29907;BME280;16776;50.958;10.994;2023-02-28T06:59:59;99803.59;;;0.10;92.11
29907;BME280;16776;50.958;10.994;2023-02-28T07:02:33;99804.59;;;0.15;92.11
29907;BME280;16776;50.958;10.994;2023-02-28T07:05:00;99797.25;;;0.23;92.08
29907;BME280;16776;50.958;10.994;2023-02-28T07:07:26;99810.19;;;0.31;92.05
29907;BME280;16776;50.958;10.994;2023-02-28T07:09:53;99807.00;;;0.38;92.31
29907;BME280;16776;50.958;10.994;2023-02-28T07:12:20;99814.13;;;0.48;92.08
29907;BME280;16776;50.958;10.994;2023-02-28T07:14:46;99810.19;;;0.57;92.21
29907;BME280;16776;50.958;10.994;2023-02-28T07:17:14;99809.63;;;0.66;92.27
29907;BME280;16776;50.958;10.994;2023-02-28T07:19:41;99810.69;;;0.73;91.91
29907;BME280;16776;50.958;10.994;2023-02-28T07:22:07;99812.56;;;0.78;92.01
29907;BME280;16776;50.958;10.994;2023-02-28T07:24:34;99806.06;;;0.86;92.02
29907;BME280;16776;50.958;10.994;2023-02-28T07:27:00;99817.22;;;0.91;91.75
29907;BME280;16776;50.958;10.994;2023-02-28T07:29:27;99798.91;;;1.00;92.36
29907;BME280;16776;50.958;10.994;2023-02-28T07:31:53;99812.78;;;1.11;91.97
29907;BME280;16776;50.958;10.994;2023-02-28T07:34:25;99812.31;;;1.24;91.87
29907;BME280;16776;50.958;10.994;2023-02-28T07:36:55;99812.59;;;1.33;92.18
29907;BME280;16776;50.958;10.994;2023-02-28T07:39:22;99796.59;;;1.36;92.63
29907;BME280;16776;50.958;10.994;2023-02-28T07:41:48;99802.28;;;1.57;92.18
29907;BME280;16776;50.958;10.994;2023-02-28T07:44:15;99800.06;;;1.69;92.05
29907;BME280;16776;50.958;10.994;2023-02-28T07:46:42;99798.78;;;1.83;92.17
29907;BME280;16776;50.958;10.994;2023-02-28T07:49:08;99799.09;;;1.96;91.70
29907;BME280;16776;50.958;10.994;2023-02-28T07:51:36;99801.16;;;2.09;92.67
29907;BME280;16776;50.958;10.994;2023-02-28T07:54:03;99798.06;;;2.20;92.75
29907;BME280;16776;50.958;10.994;2023-02-28T07:56:30;99803.53;;;2.36;92.32
29907;BME280;16776;50.958;10.994;2023-02-28T07:58:56;99802.16;;;2.48;91.60
29907;BME280;16776;50.958;10.994;2023-02-28T08:01:23;99805.75;;;2.58;91.92
29907;BME280;16776;50.958;10.994;2023-02-28T08:03:50;99802.63;;;2.68;91.64
29907;BME280;16776;50.958;10.994;2023-02-28T08:06:18;99807.13;;;2.80;91.77
29907;BME280;16776;50.958;10.994;2023-02-28T08:08:47;99801.47;;;2.91;92.08
29907;BME280;16776;50.958;10.994;2023-02-28T08:11:14;99791.47;;;2.99;91.92
29907;BME280;16776;50.958;10.994;2023-02-28T08:13:41;99795.91;;;3.09;91.12
29907;BME280;16776;50.958;10.994;2023-02-28T08:16:09;99796.22;;;3.23;91.78
29907;BME280;16776;50.958;10.994;2023-02-28T08:18:36;99789.69;;;3.34;91.53
29907;BME280;16776;50.958;10.994;2023-02-28T08:21:06;99795.16;;;3.51;90.98
29907;BME280;16776;50.958;10.994;2023-02-28T08:23:32;99791.09;;;3.60;91.28
29907;BME280;16776;50.958;10.994;2023-02-28T08:26:02;99798.19;;;3.75;91.98
29907;BME280;16776;50.958;10.994;2023-02-28T08:28:28;99790.75;;;3.87;91.42
29907;BME280;16776;50.958;10.994;2023-02-28T08:30:55;99794.44;;;4.01;91.34
29907;BME280;16776;50.958;10.994;2023-02-28T08:33:26;99795.50;;;4.14;90.30
29907;BME280;16776;50.958;10.994;2023-02-28T08:35:53;99803.31;;;4.21;90.26
29907;BME280;16776;50.958;10.994;2023-02-28T08:38:20;99798.19;;;4.23;89.81
29907;BME280;16776;50.958;10.994;2023-02-28T08:40:47;99798.25;;;4.24;88.65
29907;BME280;16776;50.958;10.994;2023-02-28T08:43:15;99808.44;;;4.24;88.99
29907;BME280;16776;50.958;10.994;2023-02-28T08:45:43;99804.13;;;4.20;88.58
29907;BME280;16776;50.958;10.994;2023-02-28T08:48:09;99800.69;;;4.18;88.54
29907;BME280;16776;50.958;10.994;2023-02-28T08:50:36;99809.97;;;4.16;87.98
29907;BME280;16776;50.958;10.994;2023-02-28T08:53:03;99806.56;;;4.14;87.69
29907;BME280;16776;50.958;10.994;2023-02-28T08:55:29;99814.13;;;4.08;87.03
29907;BME280;16776;50.958;10.994;2023-02-28T08:57:56;99808.91;;;4.02;87.50
29907;BME280;16776;50.958;10.994;2023-02-28T09:00:30;99810.50;;;3.99;86.79
29907;BME280;16776;50.958;10.994;2023-02-28T09:02:57;99810.41;;;3.93;87.14
29907;BME280;16776;50.958;10.994;2023-02-28T09:05:24;99812.91;;;3.91;86.61
29907;BME280;16776;50.958;10.994;2023-02-28T09:07:54;99818.84;;;3.90;86.67
29907;BME280;16776;50.958;10.994;2023-02-28T09:10:20;99816.28;;;3.89;86.23
29907;BME280;16776;50.958;10.994;2023-02-28T09:12:48;99810.28;;;3.87;85.63
29907;BME280;16776;50.958;10.994;2023-02-28T09:15:15;99816.16;;;3.84;86.45
29907;BME280;16776;50.958;10.994;2023-02-28T09:17:43;99817.03;;;3.84;85.35
29907;BME280;16776;50.958;10.994;2023-02-28T09:20:10;99807.72;;;3.85;85.39
29907;BME280;16776;50.958;10.994;2023-02-28T09:22:37;99812.75;;;3.83;85.96
29907;BME280;16776;50.958;10.994;2023-02-28T09:25:04;99819.63;;;3.86;84.84
29907;BME280;16776;50.958;10.994;2023-02-28T09:27:31;99811.19;;;3.89;84.95
29907;BME280;16776;50.958;10.994;2023-02-28T09:29:57;99805.25;;;3.90;84.35
29907;BME280;16776;50.958;10.994;2023-02-28T09:32:24;99812.06;;;3.89;84.34
29907;BME280;16776;50.958;10.994;2023-02-28T09:34:52;99817.16;;;3.91;83.32
29907;BME280;16776;50.958;10.994;2023-02-28T09:37:19;99818.75;;;3.85;82.76
29907;BME280;16776;50.958;10.994;2023-02-28T09:39:45;99816.13;;;3.81;82.80
29907;BME280;16776;50.958;10.994;2023-02-28T09:42:21;99812.69;;;3.79;83.44
29907;BME280;16776;50.958;10.994;2023-02-28T09:44:49;99801.47;;;3.71;83.25
29907;BME280;16776;50.958;10.994;2023-02-28T09:47:24;99807.53;;;3.76;82.83
29907;BME280;16776;50.958;10.994;2023-02-28T09:49:57;99808.41;;;3.76;83.34
29907;BME280;16776;50.958;10.994;2023-02-28T09:52:28;99800.03;;;3.82;83.74
29907;BME280;16776;50.958;10.994;2023-02-28T09:57:33;99802.00;;;3.98;84.20
29907;BME280;16776;50.958;10.994;2023-02-28T10:00:10;99808.16;;;4.09;83.82
29907;BME280;16776;50.958;10.994;2023-02-28T10:02:57;99812.63;;;4.22;84.37
29907;BME280;16776;50.958;10.994;2023-02-28T10:05:30;99807.66;;;4.27;82.67
29907;BME280;16776;50.958;10.994;2023-02-28T10:08:09;99801.78;;;4.33;82.00
29907;BME280;16776;50.958;10.994;2023-02-28T10:10:39;99808.56;;;4.32;81.75
29907;BME280;16776;50.958;10.994;2023-02-28T10:13:13;99810.38;;;4.38;82.40
29907;BME280;16776;50.958;10.994;2023-02-28T10:15:41;99813.81;;;4.40;82.35
29907;BME280;16776;50.958;10.994;2023-02-28T10:18:14;99812.31;;;4.52;82.42
29907;BME280;16776;50.958;10.994;2023-02-28T10:20:45;99813.28;;;4.59;82.04
29907;BME280;16776;50.958;10.994;2023-02-28T10:23:16;99818.50;;;4.65;81.58
29907;BME280;16776;50.958;10.994;2023-02-28T10:25:55;99817.75;;;4.72;81.57
29907;BME280;16776;50.958;10.994;2023-02-28T10:28:25;99808.38;;;4.71;81.42
29907;BME280;16776;50.958;10.994;2023-02-28T10:30:53;99810.16;;;4.77;81.18
29907;BME280;16776;50.958;10.994;2023-02-28T10:33:23;99806.00;;;4.83;80.64
29907;BME280;16776;50.958;10.994;2023-02-28T10:35:54;99818.81;;;4.88;79.41
29907;BME280;16776;50.958;10.994;2023-02-28T10:38:23;99803.47;;;4.83;79.30
29907;BME280;16776;50.958;10.994;2023-02-28T10:40:50;99815.28;;;4.78;78.82
29907;BME280;16776;50.958;10.994;2023-02-28T10:43:22;99805.09;;;4.80;79.39
29907;BME280;16776;50.958;10.994;2023-02-28T10:46:03;99791.28;;;4.67;79.66
29907;BME280;16776;50.958;10.994;2023-02-28T10:48:36;99817.75;;;4.72;78.47
29907;BME280;16776;50.958;10.994;2023-02-28T10:51:08;99784.31;;;4.55;77.16
29907;BME280;16776;50.958;10.994;2023-02-28T10:53:47;99795.44;;;4.59;77.26
29907;BME280;16776;50.958;10.994;2023-02-28T10:56:16;99803.75;;;4.49;78.30
29907;BME280;16776;50.958;10.994;2023-02-28T10:58:50;99798.66;;;4.49;77.17
29907;BME280;16776;50.958;10.994;2023-02-28T11:01:18;99800.22;;;4.41;77.33
29907;BME280;16776;50.958;10.994;2023-02-28T11:03:46;99795.88;;;4.35;77.78
29907;BME280;16776;50.958;10.994;2023-02-28T11:06:24;99807.88;;;4.42;77.80
29907;BME280;16776;50.958;10.994;2023-02-28T11:08:56;99794.97;;;4.32;76.01
29907;BME280;16776;50.958;10.994;2023-02-28T11:11:26;99793.22;;;4.28;75.59
29907;BME280;16776;50.958;10.994;2023-02-28T11:13:56;99793.97;;;4.23;75.27
29907;BME280;16776;50.958;10.994;2023-02-28T11:16:32;99792.16;;;4.18;75.85
29907;BME280;16776;50.958;10.994;2023-02-28T11:19:02;99788.63;;;4.08;75.95
29907;BME280;16776;50.958;10.994;2023-02-28T11:21:34;99790.28;;;4.06;76.71
29907;BME280;16776;50.958;10.994;2023-02-28T11:24:12;99789.44;;;4.07;76.34
29907;BME280;16776;50.958;10.994;2023-02-28T11:26:44;99779.19;;;4.04;76.94
29907;BME280;16776;50.958;10.994;2023-02-28T11:29:19;99779.28;;;4.10;77.02
29907;BME280;16776;50.958;10.994;2023-02-28T11:32:13;99794.66;;;4.13;76.68
29907;BME280;16776;50.958;10.994;2023-02-28T11:34:42;99783.44;;;4.05;76.13
29907;BME280;16776;50.958;10.994;2023-02-28T11:37:14;99765.50;;;3.99;76.40
29907;BME280;16776;50.958;10.994;2023-02-28T11:39:42;99772.34;;;4.02;76.12
29907;BME280;16776;50.958;10.994;2023-02-28T11:42:27;99774.19;;;4.10;77.53
29907;BME280;16776;50.958;10.994;2023-02-28T11:45:07;99789.59;;;4.16;76.20
29907;BME280;16776;50.958;10.994;2023-02-28T11:47:45;99769.19;;;4.16;74.92
29907;BME280;16776;50.958;10.994;2023-02-28T11:50:27;99768.34;;;4.14;75.15
29907;BME280;16776;50.958;10.994;2023-02-28T11:53:12;99769.91;;;4.08;74.87
29907;BME280;16776;50.958;10.994;2023-02-28T11:55:44;99770.59;;;3.99;75.41
29907;BME280;16776;50.958;10.994;2023-02-28T11:58:23;99766.31;;;3.98;75.21
29907;BME280;16776;50.958;10.994;2023-02-28T12:01:09;99765.53;;;4.01;75.83
29907;BME280;16776;50.958;10.994;2023-02-28T12:03:44;99761.19;;;3.95;75.85
29907;BME280;16776;50.958;10.994;2023-02-28T12:06:21;99767.19;;;3.99;76.62
29907;BME280;16776;50.958;10.994;2023-02-28T12:09:02;99762.22;;;4.06;77.03
29907;BME280;16776;50.958;10.994;2023-02-28T12:11:36;99764.00;;;4.10;77.17
29907;BME280;16776;50.958;10.994;2023-02-28T12:14:44;99750.56;;;4.19;76.89
29907;BME280;16776;50.958;10.994;2023-02-28T12:17:24;99760.88;;;4.27;77.61
29907;BME280;16776;50.958;10.994;2023-02-28T12:20:02;99758.47;;;4.34;78.11
29907;BME280;16776;50.958;10.994;2023-02-28T12:22:40;99751.78;;;4.42;77.26
29907;BME280;16776;50.958;10.994;2023-02-28T12:28:12;99749.41;;;4.54;77.62
29907;BME280;16776;50.958;10.994;2023-02-28T12:30:44;99744.44;;;4.62;78.13
29907;BME280;16776;50.958;10.994;2023-02-28T12:33:15;99729.13;;;4.62;78.02
29907;BME280;16776;50.958;10.994;2023-02-28T12:35:49;99735.25;;;4.75;77.69
29907;BME280;16776;50.958;10.994;2023-02-28T12:38:19;99743.84;;;4.80;77.70
29907;BME280;16776;50.958;10.994;2023-02-28T12:40:52;99743.91;;;4.86;77.93
29907;BME280;16776;50.958;10.994;2023-02-28T12:43:21;99706.34;;;4.74;76.37
29907;BME280;16776;50.958;10.994;2023-02-28T12:45:51;99729.50;;;4.88;77.71
29907;BME280;16776;50.958;10.994;2023-02-28T12:48:22;99729.53;;;4.89;77.51
29907;BME280;16776;50.958;10.994;2023-02-28T12:50:51;99723.59;;;4.90;78.05
29907;BME280;16776;50.958;10.994;2023-02-28T12:53:23;99724.56;;;4.98;78.32
29907;BME280;16776;50.958;10.994;2023-02-28T12:56:05;99720.34;;;5.05;77.99
29907;BME280;16776;50.958;10.994;2023-02-28T12:58:37;99719.53;;;5.04;77.35
29907;BME280;16776;50.958;10.994;2023-02-28T13:01:33;99721.28;;;5.09;76.19
29907;BME280;16776;50.958;10.994;2023-02-28T13:04:29;99720.28;;;4.99;77.15
29907;BME280;16776;50.958;10.994;2023-02-28T13:07:13;99719.34;;;4.92;77.83
29907;BME280;16776;50.958;10.994;2023-02-28T13:09:52;99721.88;;;4.89;77.41
29907;BME280;16776;50.958;10.994;2023-02-28T13:12:21;99702.06;;;4.73;77.25
29907;BME280;16776;50.958;10.994;2023-02-28T13:14:48;99719.22;;;4.82;77.84
29907;BME280;16776;50.958;10.994;2023-02-28T13:17:19;99720.09;;;4.84;77.64
29907;BME280;16776;50.958;10.994;2023-02-28T13:19:56;99719.31;;;4.89;78.47
29907;BME280;16776;50.958;10.994;2023-02-28T13:22:39;99717.69;;;4.94;78.20